Latest Weather Observations for Witchcliffe

IDW60801

Issued at 4:02 am WST Monday 26 January 2015 (issued every 30 minutes, with the page automatically refreshed every 10 minutes)

About weather observations | Map of weather stations | Latest weather observations for WA | Other Formats
Station Details ID: 009746 Name: WITCHCLIFFE Lat: -34.03 Lon: 115.10 Height: 80.0 m
Data from the previous 72 hours. | See also: Recent months at Witchcliffe
Date/Time
WST
Temp
°C
App
Temp
°C
Dew
Point
Rel
Hum
%
Delta-T
°C
Wind Press
QNH
hPa
Press
MSL
hPa
Rain
since 9 am
mm
Dir
 
Spd
km/h
Gust
km/h
Spd
kts
Gust
kts
26/04:00am 11.6 9.7 7.7 77 1.9 SE 7 15 4 8 1017.8 1017.6 0.0
26/03:30am 12.0 9.4 7.9 76 2.0 SE 11 17 6 9 1017.7 1017.5 0.0
26/03:00am 12.3 9.8 8.2 76 2.0 SE 11 22 6 12 1017.8 1017.6 0.0
26/02:30am 12.6 10.1 8.3 75 2.1 SE 11 17 6 9 1017.7 1017.5 0.0
26/02:00am 13.3 9.8 8.6 73 2.4 SE 17 26 9 14 1017.6 1017.4 0.0
26/01:30am 13.5 10.0 8.8 73 2.4 SE 17 22 9 12 1017.7 1017.5 0.0
26/01:00am 14.0 10.2 9.0 72 2.5 SE 19 24 10 13 1017.5 1017.3 0.0
26/12:30am 14.4 10.6 9.2 71 2.7 SE 19 22 10 12 1017.5 1017.3 0.0
26/12:00am 14.8 11.1 9.4 70 2.8 SE 19 28 10 15 1017.7 1017.5 0.0
 
Date/Time
WST
Temp
°C
App
Temp
°C
Dew
Point
Rel
Hum
%
Delta-T
°C
Wind Press
QNH
hPa
Press
MSL
hPa
Rain
since 9 am
mm
Dir
 
Spd
km/h
Gust
km/h
Spd
kts
Gust
kts
25/11:30pm 15.2 11.4 9.8 70 2.8 SE 20 32 11 17 1017.7 1017.5 0.0
25/11:00pm 15.6 11.8 9.9 69 3.0 SE 20 32 11 17 1017.8 1017.6 0.0
25/10:30pm 16.0 11.9 10.1 68 3.1 SE 22 33 12 18 1017.7 1017.5 0.0
25/10:00pm 16.5 12.5 10.6 68 3.1 SE 22 32 12 17 1017.8 1017.6 0.0
25/09:30pm 16.9 12.7 11.2 69 3.1 SE 24 35 13 19 1017.8 1017.6 0.0
25/09:00pm 17.1 12.6 11.4 69 3.1 SE 26 37 14 20 1017.7 1017.5 0.0
25/08:30pm 17.3 12.9 11.8 70 3.0 SE 26 43 14 23 1017.6 1017.4 0.0
25/08:00pm 17.4 12.7 12.1 71 2.9 SSE 28 39 15 21 1017.3 1017.1 0.0
25/07:37pm 17.6 12.2 12.1 70 3.0 SSE 32 50 17 27 1017.3 1017.1 0.0
25/07:30pm 17.7 12.1 12.2 70 3.0 SSE 33 48 18 26 1017.2 1017.0 0.0
25/07:00pm 18.1 12.7 12.1 68 3.3 SSE 32 48 17 26 1017.0 1016.8 0.0
25/06:34pm 18.6 13.2 12.1 66 3.6 SSE 32 54 17 29 1016.9 1016.7 0.0
25/06:30pm 18.8 13.8 12.3 66 3.6 SSE 30 46 16 25 1016.9 1016.7 0.0
25/06:08pm 19.3 13.9 12.3 64 3.9 SSE 32 50 17 27 1017.0 1016.8 0.0
25/06:00pm 19.7 13.7 12.2 62 4.2 SSE 35 48 19 26 1017.0 1016.8 0.0
25/05:30pm 20.2 14.7 11.9 59 4.6 SSE 32 48 17 26 1016.8 1016.6 0.0
25/05:00pm 21.0 15.3 11.9 56 5.1 SSE 33 46 18 25 1016.8 1016.6 0.0
25/04:30pm 20.8 14.7 11.7 56 5.1 SSE 35 48 19 26 1017.0 1016.8 0.0
25/04:00pm 22.6 17.5 12.0 51 6.0 SSE 30 46 16 25 1017.0 1016.8 0.0
25/03:30pm 22.5 17.0 11.9 51 6.0 SSE 32 48 17 26 1017.3 1017.1 0.0
25/03:06pm 22.4 17.5 11.2 49 6.2 SSE 28 46 15 25 1017.4 1017.2 0.0
25/03:00pm 23.0 17.7 11.4 48 6.5 SSE 30 39 16 21 1017.4 1017.2 0.0
25/02:30pm 23.3 18.0 11.4 47 6.7 SSE 30 41 16 22 1017.7 1017.5 0.0
25/02:00pm 23.7 18.7 11.1 45 7.0 SSE 28 43 15 23 1017.7 1017.5 0.0
25/01:30pm 23.4 18.6 11.5 47 6.7 SSE 28 43 15 23 1018.0 1017.8 0.0
25/01:00pm 23.5 18.4 10.6 44 7.1 SSE 28 41 15 22 1018.2 1018.0 0.0
25/12:30pm 23.9 19.1 10.2 42 7.6 SSE 26 35 14 19 1018.3 1018.1 0.0
25/12:00pm 23.1 18.7 8.8 40 7.6 SE 22 35 12 19 1018.7 1018.5 0.0
25/11:30am 22.1 18.0 8.6 42 7.2 SE 20 32 11 17 1018.9 1018.7 0.0
25/11:00am 21.7 18.3 9.3 45 6.6 ESE 17 28 9 15 1019.3 1019.1 0.0
25/10:30am 20.7 16.7 9.0 47 6.2 SE 20 32 11 17 1019.7 1019.5 0.0
25/10:00am 19.9 15.5 8.9 49 5.8 ESE 22 35 12 19 1019.8 1019.6 0.0
25/09:30am 19.7 15.6 8.7 49 5.8 ESE 20 32 11 17 1019.9 1019.7 0.0
25/09:00am 18.9 14.1 8.8 52 5.3 SE 24 41 13 22 1020.1 1019.8 0.0
25/08:30am 18.3 13.7 8.3 52 5.2 SE 22 39 12 21 1020.3 1020.0 0.0
25/08:00am 17.5 12.5 8.1 54 4.8 SE 24 37 13 20 1020.5 1020.2 0.0
25/07:30am 16.5 12.4 8.5 59 4.1 SE 20 32 11 17 1020.4 1020.1 0.0
25/07:00am 15.2 12.1 8.9 66 3.2 SE 15 24 8 13 1020.3 1020.0 0.0
25/06:30am 13.7 10.9 8.7 72 2.5 SE 13 22 7 12 1020.2 1019.9 0.0
25/05:30am 12.4 10.0 8.5 77 1.9 SE 11 17 6 9 1019.7 1019.5 0.0
25/05:00am 12.6 9.8 8.5 76 2.0 SE 13 17 7 9 1019.5 1019.3 0.0
25/04:30am 12.6 9.8 8.5 76 2.0 SE 13 19 7 10 1019.1 1018.9 0.0
25/04:00am 12.9 10.1 8.4 74 2.2 SE 13 20 7 11 1019.0 1018.8 0.0
25/03:30am 13.2 10.4 8.7 74 2.3 SE 13 20 7 11 1018.9 1018.7 0.0
25/03:00am 13.6 10.5 8.7 72 2.5 SE 15 22 8 12 1018.6 1018.4 0.0
25/02:30am 14.0 10.5 8.8 71 2.6 SE 17 26 9 14 1018.6 1018.4 0.0
25/02:00am 14.2 11.2 9.2 72 2.6 SE 15 24 8 13 1018.5 1018.3 0.0
25/01:30am 14.3 10.9 9.3 72 2.6 SE 17 28 9 15 1018.5 1018.3 0.0
25/01:00am 14.4 11.4 9.4 72 2.6 SE 15 24 8 13 1018.5 1018.3 0.0
25/12:30am 14.6 12.0 9.4 71 2.7 ESE 13 24 7 13 1018.5 1018.3 0.0
25/12:00am 14.9 12.5 9.9 72 2.6 ESE 13 24 7 13 1018.4 1018.2 0.0
 
Date/Time
WST
Temp
°C
App
Temp
°C
Dew
Point
Rel
Hum
%
Delta-T
°C
Wind Press
QNH
hPa
Press
MSL
hPa
Rain
since 9 am
mm
Dir
 
Spd
km/h
Gust
km/h
Spd
kts
Gust
kts
24/11:30pm 15.2 12.0 10.0 71 2.7 SE 17 24 9 13 1018.5 1018.3 0.0
24/11:00pm 15.4 12.6 10.0 70 2.8 SE 15 24 8 13 1018.6 1018.4 0.0
24/10:30pm 15.7 12.5 10.0 69 3.0 SE 17 24 9 13 1018.6 1018.4 0.0
24/10:00pm 16.1 12.9 9.8 66 3.3 SE 17 22 9 12 1018.7 1018.5 0.0
24/09:30pm 16.2 12.9 9.4 64 3.5 SE 17 24 9 13 1018.6 1018.4 0.0
24/09:00pm 16.5 12.2 9.4 63 3.7 SSE 22 28 12 15 1018.5 1018.3 0.0
24/08:30pm 16.7 13.0 10.1 65 3.5 SSE 20 28 11 15 1018.4 1018.2 0.0
24/08:00pm 16.9 13.0 10.7 67 3.3 SSE 22 33 12 18 1018.1 1017.9 0.0
24/07:30pm 17.3 12.7 11.1 67 3.4 SE 26 41 14 22 1017.9 1017.7 0.0
24/07:00pm 18.1 13.8 10.7 62 4.0 SSE 24 32 13 17 1018.1 1017.9 0.0
24/06:30pm 18.9 14.4 10.2 57 4.7 SSE 24 37 13 20 1017.9 1017.7 0.0
24/06:00pm 19.4 14.4 9.6 53 5.2 SSE 26 37 14 20 1017.6 1017.4 0.0
24/05:30pm 19.8 14.9 10.0 53 5.3 SSE 26 35 14 19 1017.6 1017.4 0.0
24/05:00pm 19.6 15.2 10.3 55 5.0 SSE 24 33 13 18 1017.6 1017.4 0.0
24/04:30pm 19.8 14.5 9.7 52 5.4 SSE 28 39 15 21 1017.8 1017.6 0.0
24/04:00pm 20.0 15.6 10.4 54 5.2 SSE 24 33 13 18 1017.9 1017.7 0.0
24/03:30pm 20.8 16.4 10.3 51 5.7 SE 24 39 13 21 1017.9 1017.7 0.0
24/03:00pm 21.0 15.8 10.2 50 5.9 SSE 28 41 15 22 1017.7 1017.5 0.0
24/02:30pm 21.5 16.9 9.7 47 6.4 SSE 24 39 13 21 1017.7 1017.5 0.0
24/02:00pm 22.8 18.3 9.9 44 7.0 SE 24 33 13 18 1017.8 1017.6 0.0
24/01:30pm 22.5 17.4 9.3 43 7.1 SSE 26 33 14 18 1017.9 1017.7 0.0
24/01:00pm 22.0 17.7 9.5 45 6.7 S 22 33 12 18 1018.0 1017.8 0.0
24/12:30pm 22.3 17.7 9.5 44 6.9 SSE 24 35 13 19 1018.0 1017.8 0.0
24/12:00pm 22.5 18.4 10.0 45 6.8 SSE 22 37 12 20 1018.2 1018.0 0.0
24/11:30am 21.7 17.6 10.2 48 6.3 SSE 22 41 12 22 1018.5 1018.3 0.0
24/11:00am 20.6 16.3 9.2 48 6.1 S 22 32 12 17 1018.7 1018.5 0.0
24/10:30am 20.6 16.1 10.1 51 5.7 SSE 24 35 13 19 1018.9 1018.7 0.0
24/10:00am 19.8 16.4 10.5 55 5.0 SE 19 28 10 15 1018.9 1018.7 0.0
24/09:30am 18.9 15.1 11.0 60 4.3 SSE 22 30 12 16 1019.1 1018.9 0.0
24/09:00am 18.1 14.7 11.4 65 3.7 SE 20 32 11 17 1019.0 1018.8 0.0
24/08:30am 18.6 14.1 10.2 58 4.5 SSE 24 35 13 19 1018.8 1018.6 0.0
24/08:00am 18.1 14.0 10.2 60 4.2 SSE 22 33 12 18 1018.7 1018.5 0.0
24/07:30am 17.8 14.4 10.7 63 3.8 SSE 19 24 10 13 1018.7 1018.5 0.0
24/07:00am 17.0 14.0 10.6 66 3.4 SSE 17 22 9 12 1018.4 1018.2 0.0
24/06:30am 15.8 14.4 10.8 72 2.7 SSE 9 15 5 8 1018.1 1017.9 0.0
24/06:00am 14.9 13.9 10.9 77 2.1 SSW 7 11 4 6 1017.9 1017.7 0.0
24/05:30am 13.7 12.1 10.1 79 1.9 SSW 9 11 5 6 1017.7 1017.5 0.0
24/05:00am 13.8 12.5 10.0 78 2.0 S 7 9 4 5 1017.2 1017.0 0.0
24/04:30am 13.9 12.7 10.3 79 1.9 S 7 11 4 6 1016.9 1016.7 0.0
24/04:00am 13.7 12.2 10.5 81 1.7 S 9 11 5 6 1016.7 1016.5 0.0
24/03:30am 13.5 12.4 10.5 82 1.6 SSW 7 11 4 6 1016.7 1016.5 0.0
24/03:00am 13.7 12.5 10.3 80 1.8 S 7 11 4 6 1016.5 1016.3 0.0
24/02:30am 14.3 13.3 10.9 80 1.8 S 7 13 4 7 1016.6 1016.4 0.0
24/02:00am 14.5 13.4 10.7 78 2.0 S 7 13 4 7 1016.9 1016.7 0.0
24/01:30am 14.5 13.1 10.9 79 1.9 S 9 13 5 7 1017.0 1016.8 0.0
24/01:00am 14.7 13.2 10.7 77 2.1 S 9 15 5 8 1017.2 1017.0 0.0
24/12:30am 15.3 13.2 11.3 77 2.1 SSE 13 17 7 9 1017.2 1017.0 0.0
24/12:00am 15.4 13.4 11.4 77 2.2 S 13 17 7 9 1017.3 1017.1 0.0
 
Date/Time
WST
Temp
°C
App
Temp
°C
Dew
Point
Rel
Hum
%
Delta-T
°C
Wind Press
QNH
hPa
Press
MSL
hPa
Rain
since 9 am
mm
Dir
 
Spd
km/h
Gust
km/h
Spd
kts
Gust
kts
23/11:30pm 15.3 13.6 11.1 76 2.2 S 11 13 6 7 1017.3 1017.1 0.0
23/11:00pm 15.8 13.7 11.2 74 2.5 S 13 17 7 9 1017.3 1017.1 0.0
23/10:30pm 16.3 14.2 11.2 72 2.8 S 13 17 7 9 1017.4 1017.2 0.0
23/10:00pm 16.8 14.7 11.3 70 3.0 S 13 17 7 9 1017.5 1017.3 0.0
23/09:30pm 17.0 14.9 11.3 69 3.1 S 13 19 7 10 1017.5 1017.3 0.0
23/09:00pm 17.0 13.8 11.1 68 3.2 SSE 19 28 10 15 1017.6 1017.4 0.0
23/08:30pm 17.5 14.7 11.3 67 3.4 S 17 28 9 15 1017.2 1017.0 0.0
23/08:00pm 17.8 13.7 11.6 67 3.4 S 24 33 13 18 1017.2 1017.0 0.0
23/07:30pm 18.1 14.9 11.9 67 3.4 S 20 30 11 16 1017.1 1016.9 0.0
23/07:00pm 18.3 15.1 11.8 66 3.6 S 20 30 11 16 1017.0 1016.8 0.0
23/06:30pm 18.7 15.2 12.2 66 3.6 SSW 22 32 12 17 1016.8 1016.6 0.0
23/06:00pm 19.4 16.2 11.9 62 4.2 S 20 33 11 18 1016.7 1016.5 0.0
23/05:30pm 20.0 16.5 12.3 61 4.3 S 22 35 12 19 1016.6 1016.4 0.0
23/05:00pm 20.9 16.8 11.5 55 5.2 S 24 32 13 17 1016.6 1016.4 0.0
23/04:30pm 21.1 17.3 11.2 53 5.5 S 22 30 12 16 1016.3 1016.1 0.0
23/04:00pm 22.0 18.5 10.8 49 6.2 S 20 30 11 16 1016.3 1016.1 0.0
23/03:30pm 22.0 18.6 10.5 48 6.3 S 19 28 10 15 1016.3 1016.1 0.0
23/03:00pm 22.1 18.7 10.6 48 6.3 S 19 24 10 13 1016.5 1016.3 0.0
23/02:30pm 23.1 19.5 10.5 45 7.0 S 20 33 11 18 1016.7 1016.5 0.0
23/02:00pm 23.5 19.5 10.6 44 7.1 S 22 37 12 20 1016.6 1016.4 0.0
23/01:30pm 23.5 19.2 10.9 45 7.0 S 24 37 13 20 1016.7 1016.5 0.0
23/01:00pm 23.7 20.5 11.1 45 7.0 S 19 30 10 16 1016.8 1016.6 0.0
23/12:30pm 24.5 22.0 11.1 43 7.5 S 15 30 8 16 1017.1 1016.9 0.0
23/12:00pm 22.8 20.0 9.9 44 7.0 SSE 15 24 8 13 1017.2 1017.0 0.0
23/11:30am 22.0 18.4 9.9 46 6.6 SE 19 28 10 15 1017.4 1017.2 0.0
23/11:00am 21.4 18.2 9.9 48 6.2 S 17 26 9 14 1017.7 1017.5 0.0
23/10:30am 20.9 17.3 9.8 49 6.0 S 19 28 10 15 1017.8 1017.6 0.0
23/10:00am 20.3 17.4 9.8 51 5.6 SE 15 24 8 13 1017.9 1017.7 0.0
23/09:30am 19.5 15.8 10.0 54 5.1 SSE 20 28 11 15 1018.2 1018.0 0.0
23/09:00am 18.8 16.0 10.1 57 4.7 SE 15 22 8 12 1018.2 1018.0 0.0
23/08:30am 18.5 14.8 10.1 58 4.5 SSE 20 28 11 15 1018.3 1018.1 0.0
23/08:00am 18.3 15.2 10.2 59 4.3 SSE 17 30 9 16 1018.4 1018.2 0.0
23/07:30am 17.5 14.3 10.1 62 3.9 SE 17 26 9 14 1018.3 1018.1 0.0
23/07:00am 17.2 13.6 9.9 62 3.9 SSE 19 24 10 13 1018.4 1018.2 0.0
23/06:30am 17.3 15.1 10.7 65 3.5 SSE 13 19 7 10 1018.3 1018.1 0.0
23/06:00am 17.0 15.1 10.6 66 3.4 SSE 11 15 6 8 1018.2 1018.0 0.0
23/05:30am 17.0 14.7 10.6 66 3.4 SSE 13 20 7 11 1018.0 1017.8 0.0
23/05:00am 17.0 14.4 10.6 66 3.4 SSE 15 20 8 11 1017.6 1017.4 0.0
23/04:30am 17.1 15.3 10.9 67 3.3 SSE 11 17 6 9 1017.6 1017.4 0.0

Other Formats:

Comma delimited format used in spreadsheet applications
http://www.bom.gov.au/fwo/IDW60801/IDW60801.95641.axf

JavaScript Object Notation format (JSON) in row-major order
http://www.bom.gov.au/fwo/IDW60801/IDW60801.95641.json